createdAt,value
2022-10-04T00:02:30.969Z,8.85
2022-10-04T00:05:08.792Z,8.85
2022-10-04T00:07:40.539Z,8.84
2022-10-04T00:10:21.134Z,8.84
2022-10-04T00:12:59.352Z,8.85
2022-10-04T00:15:29.635Z,8.85
2022-10-04T00:18:19.075Z,8.86
2022-10-04T00:20:48.482Z,8.88
2022-10-04T00:23:25.523Z,8.91
2022-10-04T00:26:00.082Z,8.94
2022-10-04T00:28:26.690Z,9.00
2022-10-04T00:31:11.422Z,9.04
2022-10-04T00:33:54.080Z,9.11
2022-10-04T00:36:23.487Z,9.17
2022-10-04T00:39:03.637Z,9.24
2022-10-04T00:41:53.684Z,9.30
2022-10-04T00:45:00.180Z,9.34
2022-10-04T00:47:33.058Z,9.39
2022-10-04T00:50:13.925Z,9.41
2022-10-04T00:52:45.369Z,9.43
2022-10-04T00:55:23.115Z,9.43
2022-10-04T00:57:54.424Z,9.44
2022-10-04T01:00:21.359Z,9.42
2022-10-04T01:03:03.889Z,9.39
2022-10-04T01:05:35.233Z,9.36
2022-10-04T01:08:11.597Z,9.32
2022-10-04T01:10:52.279Z,9.27
2022-10-04T01:13:52.868Z,9.22
2022-10-04T01:16:23.193Z,9.17
2022-10-04T01:18:49.706Z,9.14
2022-10-04T01:21:19.047Z,9.07
2022-10-04T01:23:45.495Z,9.04
2022-10-04T01:26:26.879Z,8.97
2022-10-04T01:28:54.172Z,8.94
2022-10-04T01:31:21.020Z,8.87
2022-10-04T01:33:47.894Z,8.85
2022-10-04T01:36:14.481Z,8.81
2022-10-04T01:38:41.386Z,8.74
2022-10-04T01:41:10.788Z,8.71
2022-10-04T01:43:41.318Z,8.64
2022-10-04T01:46:16.609Z,8.59
2022-10-04T01:48:45.838Z,8.54
2022-10-04T01:51:24.344Z,8.49
2022-10-04T01:53:59.760Z,8.46
2022-10-04T01:56:31.541Z,8.43
2022-10-04T01:59:07.492Z,8.39
2022-10-04T02:02:00.422Z,8.32
2022-10-04T02:04:29.527Z,8.31
2022-10-04T02:06:59.112Z,8.28
2022-10-04T02:09:30.019Z,8.25
2022-10-04T02:11:57.152Z,8.23
2022-10-04T02:14:27.671Z,8.20
2022-10-04T02:16:54.529Z,8.18
2022-10-04T02:19:31.200Z,8.14
2022-10-04T02:21:58.973Z,8.12
2022-10-04T02:24:25.872Z,8.08
2022-10-04T02:26:53.270Z,8.07
2022-10-04T02:29:21.179Z,8.05
2022-10-04T02:31:51.011Z,8.03
2022-10-04T02:34:19.040Z,8.01
2022-10-04T02:36:45.988Z,7.99
2022-10-04T02:39:23.212Z,7.96
2022-10-04T02:41:55.480Z,7.92
2022-10-04T02:44:28.174Z,7.92
2022-10-04T02:47:16.707Z,7.89
2022-10-04T02:49:48.432Z,7.86
2022-10-04T02:52:26.258Z,7.83
2022-10-04T02:55:06.042Z,7.79
2022-10-04T02:57:34.971Z,7.78
2022-10-04T03:00:29.005Z,7.74
2022-10-04T03:03:16.398Z,7.71
2022-10-04T03:05:47.613Z,7.69
2022-10-04T03:08:14.599Z,7.68
2022-10-04T03:10:42.361Z,7.64
2022-10-04T03:13:09.047Z,7.62
2022-10-04T03:15:35.713Z,7.59
2022-10-04T03:18:02.373Z,7.58
2022-10-04T03:20:29.116Z,7.56
2022-10-04T03:22:56.910Z,7.55
2022-10-04T03:25:35.361Z,7.50
2022-10-04T03:28:02.711Z,7.50
2022-10-04T03:30:30.422Z,7.49
2022-10-04T03:32:57.090Z,7.48
2022-10-04T03:35:32.204Z,7.46
2022-10-04T03:37:59.683Z,7.44
2022-10-04T03:40:30.576Z,7.43
2022-10-04T03:42:59.369Z,7.42
2022-10-04T03:45:27.928Z,7.41
2022-10-04T03:48:00.982Z,7.39
2022-10-04T03:50:35.347Z,7.37
2022-10-04T03:53:08.078Z,7.35
2022-10-04T03:55:38.463Z,7.35
2022-10-04T03:58:05.571Z,7.33
2022-10-04T04:00:34.904Z,7.32
2022-10-04T04:03:07.241Z,7.29
2022-10-04T04:05:57.731Z,7.28
2022-10-04T04:08:32.584Z,7.25
2022-10-04T04:11:02.808Z,7.25
2022-10-04T04:13:45.834Z,7.20
2022-10-04T04:16:12.836Z,7.20
2022-10-04T04:18:43.332Z,7.19
2022-10-04T04:21:13.334Z,7.18
2022-10-04T04:23:46.859Z,7.17
2022-10-04T04:26:17.962Z,7.15
2022-10-04T04:28:46.341Z,7.16
2022-10-04T04:31:23.276Z,7.13
2022-10-04T04:34:18.739Z,7.11
2022-10-04T04:36:45.524Z,7.13
2022-10-04T04:39:14.672Z,7.14
2022-10-04T04:41:41.386Z,7.12
2022-10-04T04:44:17.951Z,7.13
2022-10-04T04:46:46.407Z,7.13
2022-10-04T04:49:16.734Z,7.13
2022-10-04T04:51:49.435Z,7.12
2022-10-04T04:54:17.316Z,7.12
2022-10-04T04:56:44.402Z,7.11
2022-10-04T04:59:12.243Z,7.08
2022-10-04T05:01:44.662Z,7.07
2022-10-04T05:04:11.709Z,7.08
2022-10-04T05:06:58.706Z,7.06
2022-10-04T05:09:38.218Z,7.06
2022-10-04T05:12:10.141Z,7.07
2022-10-04T05:14:45.383Z,7.05
2022-10-04T05:17:20.097Z,7.02
2022-10-04T05:19:46.883Z,7.02
2022-10-04T05:22:18.949Z,6.99
2022-10-04T05:24:48.614Z,7.00
2022-10-04T05:27:23.007Z,6.98
2022-10-04T05:30:00.220Z,6.98
2022-10-04T05:32:51.076Z,6.98
2022-10-04T05:35:20.250Z,7.02
2022-10-04T05:38:06.022Z,7.05
2022-10-04T05:40:49.702Z,7.08
2022-10-04T05:43:22.305Z,7.12
2022-10-04T05:46:25.288Z,7.16
2022-10-04T05:48:54.650Z,7.21
2022-10-04T05:51:26.443Z,7.25
2022-10-04T05:53:54.203Z,7.33
2022-10-04T05:56:39.076Z,7.37
2022-10-04T05:59:29.947Z,7.44
2022-10-04T06:02:18.263Z,7.53
2022-10-04T06:05:06.647Z,7.62
2022-10-04T06:08:05.537Z,7.71
2022-10-04T06:10:44.153Z,7.78
2022-10-04T06:13:48.373Z,7.85
2022-10-04T06:16:39.777Z,7.91
2022-10-04T06:19:23.900Z,7.98
2022-10-04T06:21:50.412Z,8.07
2022-10-04T06:24:27.447Z,8.12
2022-10-04T06:27:01.261Z,8.21
2022-10-04T06:29:36.193Z,8.31
2022-10-04T06:32:19.770Z,8.44
2022-10-04T06:35:01.595Z,8.57
2022-10-04T06:37:51.301Z,8.69
2022-10-04T06:40:23.739Z,8.86
2022-10-04T06:43:02.055Z,9.01
2022-10-04T06:45:54.555Z,9.20
2022-10-04T06:48:30.036Z,9.39
2022-10-04T06:50:56.478Z,9.56
2022-10-04T06:53:34.789Z,9.75
2022-10-04T06:56:04.247Z,9.94
2022-10-04T06:58:36.880Z,10.15
2022-10-04T07:01:14.630Z,10.34
2022-10-04T07:03:51.770Z,10.53
2022-10-04T07:06:27.728Z,10.72
2022-10-04T07:08:55.183Z,10.89
2022-10-04T07:11:32.303Z,11.04
2022-10-04T07:14:11.396Z,11.19
2022-10-04T07:16:46.907Z,11.33
2022-10-04T07:19:19.637Z,11.46
2022-10-04T07:22:12.409Z,11.55
2022-10-04T07:24:50.860Z,11.66
2022-10-04T07:27:22.091Z,11.75
2022-10-04T07:29:54.908Z,11.84
2022-10-04T07:32:29.905Z,11.95
2022-10-04T07:35:14.602Z,12.04
2022-10-04T07:37:55.085Z,12.10
2022-10-04T07:40:33.143Z,12.20
2022-10-04T07:43:05.578Z,12.22
2022-10-04T07:45:39.477Z,12.38
2022-10-04T07:48:16.527Z,12.47
2022-10-04T07:50:50.954Z,12.54
2022-10-04T07:53:42.739Z,12.61
2022-10-04T07:56:43.680Z,12.69
2022-10-04T07:59:25.125Z,12.78
2022-10-04T08:02:48.598Z,12.83
2022-10-04T08:05:28.793Z,12.93
2022-10-04T08:08:32.906Z,13.01
2022-10-04T08:11:15.415Z,13.10
2022-10-04T08:13:57.819Z,13.16
2022-10-04T08:16:37.152Z,13.23
2022-10-04T08:19:21.631Z,13.30
2022-10-04T08:22:05.464Z,13.35
2022-10-04T08:24:58.156Z,13.36
2022-10-04T08:28:05.496Z,13.40
2022-10-04T08:30:50.383Z,13.45
2022-10-04T08:33:30.627Z,13.48
2022-10-04T08:36:17.775Z,13.52
2022-10-04T08:38:49.982Z,13.56
2022-10-04T08:41:19.251Z,13.64
2022-10-04T08:43:57.676Z,13.70
2022-10-04T08:46:39.150Z,13.75
2022-10-04T08:49:28.298Z,13.78
2022-10-04T08:52:32.000Z,13.84
2022-10-04T08:55:23.324Z,13.89
2022-10-04T08:57:55.905Z,13.96
2022-10-04T09:00:43.635Z,14.08
2022-10-04T09:03:45.367Z,14.17
2022-10-04T09:06:32.293Z,14.24
2022-10-04T09:09:26.750Z,14.29
2022-10-04T09:12:11.385Z,14.34
2022-10-04T09:15:12.310Z,14.40
2022-10-04T09:17:54.083Z,14.49
2022-10-04T09:20:38.349Z,14.54
2022-10-04T09:23:39.462Z,14.62
2022-10-04T09:26:23.060Z,14.71
2022-10-04T09:29:26.673Z,14.79
2022-10-04T09:32:17.326Z,14.88
2022-10-04T09:35:12.912Z,14.95
2022-10-04T09:38:14.854Z,15.02
2022-10-04T09:41:13.842Z,15.08
2022-10-04T09:44:17.881Z,15.13
2022-10-04T09:46:53.293Z,15.16
2022-10-04T09:49:25.490Z,15.23
2022-10-04T09:52:19.744Z,15.32
2022-10-04T09:55:01.448Z,15.41
2022-10-04T09:57:53.145Z,15.51
2022-10-04T10:00:58.881Z,15.61
2022-10-04T10:03:53.049Z,15.69
2022-10-04T10:06:41.891Z,15.78
2022-10-04T10:09:27.474Z,15.90
2022-10-04T10:12:22.455Z,16.02
2022-10-04T10:15:24.502Z,16.14
2022-10-04T10:18:13.534Z,16.26
2022-10-04T10:20:49.227Z,16.38
2022-10-04T10:23:31.644Z,16.49
2022-10-04T10:26:19.073Z,16.56
2022-10-04T10:29:15.709Z,16.62
2022-10-04T10:32:00.396Z,16.73
2022-10-04T10:35:05.779Z,16.83
2022-10-04T10:38:04.925Z,16.92
2022-10-04T10:40:48.172Z,17.02
2022-10-04T10:43:35.437Z,17.10
2022-10-04T10:46:23.592Z,17.13
2022-10-04T10:49:24.110Z,17.19
2022-10-04T10:52:28.135Z,17.26
2022-10-04T10:55:15.968Z,17.35
2022-10-04T10:58:02.747Z,17.25
2022-10-04T11:01:03.264Z,17.36
2022-10-04T11:04:11.222Z,17.41
2022-10-04T11:07:04.100Z,17.48
2022-10-04T11:10:17.500Z,17.45
2022-10-04T11:12:51.924Z,17.40
2022-10-04T11:15:49.457Z,17.37
2022-10-04T11:18:25.254Z,17.41
2022-10-04T11:20:54.709Z,17.42
2022-10-04T11:23:56.886Z,17.40
2022-10-04T11:26:47.847Z,17.44
2022-10-04T11:29:23.547Z,17.48
2022-10-04T11:32:15.563Z,17.52
2022-10-04T11:35:29.271Z,17.50
2022-10-04T11:38:24.839Z,17.50
2022-10-04T11:41:09.184Z,17.55
2022-10-04T11:43:57.010Z,17.62
2022-10-04T11:46:27.962Z,17.61
2022-10-04T11:49:13.160Z,17.74
2022-10-04T11:52:10.821Z,17.79
2022-10-04T11:54:56.027Z,17.75
2022-10-04T11:57:39.976Z,17.87
2022-10-04T12:00:18.098Z,17.94
2022-10-04T12:02:49.175Z,17.97
2022-10-04T12:05:34.027Z,18.05
2022-10-04T12:08:15.031Z,18.11
2022-10-04T12:10:49.361Z,18.20
2022-10-04T12:13:33.727Z,18.27
2022-10-04T12:16:30.555Z,18.30
2022-10-04T12:19:15.596Z,18.38
2022-10-04T12:22:03.332Z,18.45
2022-10-04T12:24:29.753Z,18.41
2022-10-04T12:26:59.174Z,18.58
2022-10-04T12:29:25.617Z,18.62
2022-10-04T12:31:58.653Z,18.63
2022-10-04T12:34:39.061Z,18.62
2022-10-04T12:37:16.595Z,18.59
2022-10-04T12:39:52.244Z,18.61
2022-10-04T12:42:55.151Z,18.58
2022-10-04T12:45:48.593Z,18.56
2022-10-04T12:48:57.216Z,18.53
2022-10-04T12:51:37.240Z,18.57
2022-10-04T12:54:36.512Z,18.55
2022-10-04T12:57:12.011Z,18.54
2022-10-04T13:00:05.204Z,18.54
2022-10-04T13:02:34.389Z,18.58
2022-10-04T13:05:16.853Z,18.63
2022-10-04T13:08:04.556Z,18.62
2022-10-04T13:10:56.186Z,18.53
2022-10-04T13:13:49.516Z,18.53
2022-10-04T13:19:17.278Z,18.45
2022-10-04T13:22:51.454Z,18.44
2022-10-04T13:25:26.907Z,18.46
2022-10-04T13:28:17.093Z,18.49
2022-10-04T13:30:52.921Z,18.55
2022-10-04T13:33:50.791Z,18.62
2022-10-04T13:36:49.145Z,18.62
2022-10-04T13:39:49.599Z,18.66
2022-10-04T13:42:19.118Z,18.66
2022-10-04T13:44:51.351Z,18.70
2022-10-04T13:48:02.676Z,18.72
2022-10-04T13:50:44.822Z,18.73
2022-10-04T13:54:02.684Z,18.73
2022-10-04T13:56:35.203Z,18.80
2022-10-04T13:59:23.616Z,18.83
2022-10-04T14:02:10.300Z,18.90
2022-10-04T14:05:18.059Z,18.91
2022-10-04T14:08:09.105Z,18.92
2022-10-04T14:11:00.230Z,18.95
2022-10-04T14:13:45.547Z,18.96
2022-10-04T14:16:30.563Z,18.99
2022-10-04T14:19:28.790Z,19.00
2022-10-04T14:22:19.566Z,18.98
2022-10-04T14:25:18.864Z,19.02
2022-10-04T14:28:14.144Z,19.03
2022-10-04T14:30:53.267Z,19.03
2022-10-04T14:33:38.556Z,19.05
2022-10-04T14:36:28.800Z,19.04
2022-10-04T14:39:03.765Z,19.02
2022-10-04T14:41:45.880Z,19.00
2022-10-04T14:44:21.263Z,18.97
2022-10-04T14:46:50.503Z,18.97
2022-10-04T14:49:25.061Z,18.95
2022-10-04T14:52:10.665Z,18.89
2022-10-04T14:54:50.458Z,18.82
2022-10-04T14:57:45.156Z,18.75
2022-10-04T15:00:23.822Z,18.70
2022-10-04T15:03:11.735Z,18.63
2022-10-04T15:05:53.401Z,18.55
2022-10-04T15:08:22.697Z,18.49
2022-10-04T15:10:54.770Z,18.44
2022-10-04T15:13:32.509Z,18.36
2022-10-04T15:16:13.873Z,18.28
2022-10-04T15:19:04.220Z,18.19
2022-10-04T15:21:43.928Z,18.11
2022-10-04T15:24:31.380Z,18.01
2022-10-04T15:27:35.241Z,17.90
2022-10-04T15:30:01.733Z,17.83
2022-10-04T15:32:48.688Z,17.75
2022-10-04T15:35:24.224Z,17.65
2022-10-04T15:38:04.721Z,17.55
2022-10-04T15:41:13.651Z,17.40
2022-10-04T15:43:45.451Z,17.34
2022-10-04T15:46:42.928Z,17.23
2022-10-04T15:49:28.208Z,17.06
2022-10-04T15:52:06.729Z,17.04
2022-10-04T15:55:01.770Z,16.97
2022-10-04T15:58:01.412Z,16.85
2022-10-04T16:01:06.945Z,16.77
2022-10-04T16:03:54.441Z,16.72
2022-10-04T16:06:34.186Z,16.64
2022-10-04T16:09:12.688Z,16.59
2022-10-04T16:11:57.952Z,16.53
2022-10-04T16:14:37.581Z,16.47
2022-10-04T16:17:28.311Z,16.42
2022-10-04T16:20:13.637Z,16.37
2022-10-04T16:22:40.331Z,16.32
2022-10-04T16:25:24.841Z,16.22
2022-10-04T16:27:57.570Z,16.16
2022-10-04T16:30:33.431Z,16.08
2022-10-04T16:33:29.618Z,16.00
2022-10-04T16:36:09.883Z,15.89
2022-10-04T16:38:45.139Z,15.80
2022-10-04T16:41:16.018Z,15.72
2022-10-04T16:43:56.546Z,15.61
2022-10-04T16:46:36.377Z,15.52
2022-10-04T16:49:20.899Z,15.42
2022-10-04T16:52:00.748Z,15.33
2022-10-04T16:54:38.939Z,15.23
2022-10-04T16:57:16.831Z,15.12
2022-10-04T16:59:44.999Z,14.95
2022-10-04T17:02:34.431Z,14.93
2022-10-04T17:05:20.951Z,14.84
2022-10-04T17:08:20.686Z,14.72
2022-10-04T17:10:50.105Z,14.64
2022-10-04T17:13:46.958Z,14.54
2022-10-04T17:16:35.836Z,14.45
2022-10-04T17:19:25.583Z,14.36
2022-10-04T17:21:52.018Z,14.28
2022-10-04T17:24:41.816Z,14.18
2022-10-04T17:27:08.277Z,14.11
2022-10-04T17:29:46.917Z,14.02
2022-10-04T17:32:22.790Z,13.94
2022-10-04T17:35:12.165Z,13.86
2022-10-04T17:37:44.302Z,13.78
2022-10-04T17:40:27.635Z,13.69
2022-10-04T17:43:20.523Z,13.65
2022-10-04T17:46:02.067Z,13.57
2022-10-04T17:48:31.635Z,13.51
2022-10-04T17:51:16.840Z,13.46
2022-10-04T17:53:48.971Z,13.38
2022-10-04T17:56:27.357Z,13.33
2022-10-04T17:58:55.963Z,13.27
2022-10-04T18:01:54.748Z,13.20
2022-10-04T18:04:27.300Z,13.15
2022-10-04T18:07:09.721Z,13.10
2022-10-04T18:09:52.425Z,13.04
2022-10-04T18:13:04.905Z,12.97
2022-10-04T18:15:42.030Z,12.93
2022-10-04T18:18:14.967Z,12.87
2022-10-04T18:20:56.271Z,12.83
2022-10-04T18:23:26.983Z,12.79
2022-10-04T18:25:58.643Z,12.74
2022-10-04T18:28:25.876Z,12.69
2022-10-04T18:30:53.919Z,12.64
2022-10-04T18:33:26.443Z,12.60
2022-10-04T18:36:02.615Z,12.56
2022-10-04T18:38:31.334Z,12.52
2022-10-04T18:41:02.963Z,12.46
2022-10-04T18:43:35.045Z,12.42
2022-10-04T18:46:05.350Z,12.37
2022-10-04T18:48:50.946Z,12.30
2022-10-04T18:51:37.633Z,12.24
2022-10-04T18:54:28.903Z,12.18
2022-10-04T18:57:21.365Z,12.13
2022-10-04T19:00:02.374Z,12.10
2022-10-04T19:02:53.537Z,12.06
2022-10-04T19:05:30.364Z,12.03
2022-10-04T19:08:04.333Z,12.00
2022-10-04T19:11:11.671Z,11.93
2022-10-04T19:14:02.667Z,11.90
2022-10-04T19:16:54.533Z,11.87
2022-10-04T19:19:29.738Z,11.84
2022-10-04T19:22:16.543Z,11.80
2022-10-04T19:25:05.394Z,11.75
2022-10-04T19:27:52.127Z,11.72
2022-10-04T19:30:27.455Z,11.69
2022-10-04T19:33:01.858Z,11.66
2022-10-04T19:35:57.497Z,11.62
2022-10-04T19:38:43.316Z,11.56
2022-10-04T19:41:24.353Z,11.53
2022-10-04T19:44:15.101Z,11.49
2022-10-04T19:47:08.102Z,11.46
2022-10-04T19:49:43.972Z,11.42
2022-10-04T19:52:19.003Z,11.36
2022-10-04T19:54:45.588Z,11.34
2022-10-04T19:57:13.457Z,11.29
2022-10-04T19:59:41.644Z,11.25
2022-10-04T20:02:10.448Z,11.13
2022-10-04T20:04:37.382Z,11.17
2022-10-04T20:07:18.313Z,11.14
2022-10-04T20:09:44.763Z,11.09
2022-10-04T20:12:37.801Z,11.04
2022-10-04T20:15:16.417Z,10.99
2022-10-04T20:17:44.699Z,10.97
2022-10-04T20:20:35.481Z,10.93
2022-10-04T20:23:02.192Z,10.91
2022-10-04T20:25:43.998Z,10.86
2022-10-04T20:28:26.279Z,10.86
2022-10-04T20:30:57.578Z,10.81
2022-10-04T20:33:36.259Z,10.76
2022-10-04T20:36:02.776Z,10.75
2022-10-04T20:38:50.110Z,10.69
2022-10-04T20:41:28.673Z,10.66
2022-10-04T20:44:00.594Z,10.66
2022-10-04T20:46:33.475Z,10.63
2022-10-04T20:49:02.448Z,10.60
2022-10-04T20:51:30.738Z,10.59
2022-10-04T20:53:57.273Z,10.57
2022-10-04T20:56:30.340Z,10.55
2022-10-04T20:58:59.816Z,10.53
2022-10-04T21:01:28.916Z,10.53
2022-10-04T21:04:28.614Z,10.49
2022-10-04T21:07:06.268Z,10.48
2022-10-04T21:09:37.708Z,10.45
2022-10-04T21:12:05.763Z,10.44
2022-10-04T21:14:35.477Z,10.41
2022-10-04T21:17:22.993Z,10.41
2022-10-04T21:19:49.486Z,10.38
2022-10-04T21:22:15.914Z,10.37
2022-10-04T21:24:52.920Z,10.36
2022-10-04T21:27:35.734Z,10.32
2022-10-04T21:30:08.180Z,10.32
2022-10-04T21:32:36.796Z,10.29
2022-10-04T21:35:05.403Z,10.27
2022-10-04T21:37:32.671Z,10.25
2022-10-04T21:40:02.814Z,10.24
2022-10-04T21:42:29.329Z,10.22
2022-10-04T21:44:55.830Z,10.21
2022-10-04T21:47:22.613Z,10.20
2022-10-04T21:49:50.278Z,10.19
2022-10-04T21:52:16.715Z,10.16
2022-10-04T21:54:43.367Z,10.15
2022-10-04T21:57:10.416Z,10.14
2022-10-04T21:59:36.997Z,10.13
2022-10-04T22:02:03.682Z,10.13
2022-10-04T22:04:30.263Z,10.12
2022-10-04T22:06:56.772Z,10.11
2022-10-04T22:09:23.227Z,10.10
2022-10-04T22:11:49.705Z,10.10
2022-10-04T22:14:16.367Z,10.07
2022-10-04T22:16:42.982Z,10.06
2022-10-04T22:19:09.537Z,10.05
2022-10-04T22:21:36.035Z,10.02
2022-10-04T22:24:04.044Z,10.01
2022-10-04T22:26:31.188Z,9.98
2022-10-04T22:28:57.871Z,9.97
2022-10-04T22:31:29.176Z,9.93
2022-10-04T22:33:56.587Z,9.91
2022-10-04T22:36:37.819Z,9.89
2022-10-04T22:39:14.381Z,9.87
2022-10-04T22:41:55.503Z,9.84
2022-10-04T22:44:29.953Z,9.83
2022-10-04T22:47:00.184Z,9.79
2022-10-04T22:49:37.314Z,9.78
2022-10-04T22:52:13.286Z,9.75
2022-10-04T22:54:45.981Z,9.73
2022-10-04T22:57:14.774Z,9.71
2022-10-04T22:59:52.400Z,9.71
2022-10-04T23:02:29.193Z,9.69
2022-10-04T23:05:12.061Z,9.67
2022-10-04T23:07:38.846Z,9.66
2022-10-04T23:10:06.288Z,9.64
2022-10-04T23:12:33.135Z,9.61
2022-10-04T23:15:01.756Z,9.59
2022-10-04T23:17:39.527Z,9.59
2022-10-04T23:20:08.838Z,9.55
2022-10-04T23:22:35.706Z,9.55
2022-10-04T23:25:02.255Z,9.55
2022-10-04T23:27:28.856Z,9.54
2022-10-04T23:30:01.064Z,9.53
2022-10-04T23:32:27.882Z,9.52
2022-10-04T23:34:56.834Z,9.50
2022-10-04T23:37:26.088Z,9.49
2022-10-04T23:43:15.553Z,9.43
2022-10-04T23:45:42.292Z,9.42
2022-10-04T23:48:11.231Z,9.41
2022-10-04T23:50:39.263Z,9.40
2022-10-04T23:53:14.299Z,9.37
2022-10-04T23:55:43.996Z,9.36
2022-10-04T23:58:16.391Z,9.35
